Meteo Giornale » Osservazioni meteo Italia » Cuneo-Levaldigi

ore: 02:20 - Osservazioni Meteo Cuneo-Levaldigi
Lat. 44° 32' N Lon. 7° 37' E Alt. 396 metri s.l.m.

sereno

18 °C

Sereno

Temp. 24 Ore

16 °C

30 °C

Sud/Sud-Ovest

11.1 Km/h

Dew point 17 °C

Umidità 93 %

Visibilità  10 Km

Il sole sorge alle ore 06:54

Il sole tramonta alle ore 20:03

Data e Ora Cielo e Fenomeni T °C DP °C Um. % Pres. hPa Vis. km Vento km/h
Oggi h: 02:20 sereno Sereno 18 17 93 1020 10 S/SO 11.1
Oggi h: 01:50 sereno Sereno 18 17 93 1020 10 SO 9.3
Oggi h: 01:20 sereno Sereno 18 17 93 1019 10 S/SO 11.1
Oggi h: 00:50 sereno Sereno 19 17 88 1019 10 N 5.5
Oggi h: 00:20 sereno Sereno 19 18 93 1019 10 S 7.4
Ieri h: 23:50 sereno Sereno 19 18 93 1019 10 SO 9.3
Ieri h: 23:20 sereno Sereno 21 18 82 1019 10 O/SO 7.4
Ieri h: 22:50 sereno Sereno 21 18 82 1019 10 N 3.7
Ieri h: 22:20 sereno Sereno 22 18 78 1019 10 SO 7.4
Ieri h: 21:50 sereno Sereno 22 18 78 1019 10 N 5.5
Ieri h: 21:20 sereno Sereno 23 18 73 1018 10 N 3.7
Ieri h: 20:50 sereno Sereno 25 17 61 1018 10 N 3.7
Ieri h: 20:20 poco_nuvoloso Poco Nuvoloso 26 17 57 1018 10 N 5.5
Ieri h: 19:50 molto_nuvoloso Molto Nuvoloso 27 17 54 1018 10 N 3.7
Ieri h: 19:20 sereno Sereno 28 16 48 1017 10 N 3.7
Ieri h: 18:50 sereno Sereno 29 16 45 1017 10 N 5.5
Ieri h: 18:20 sereno Sereno 30 15 40 1017 10 N/NO 7.4
Ieri h: 17:50 sereno Sereno 30 15 40 1017 10 N 7.4
Ieri h: 17:20 sereno Sereno 30 15 40 1018 10 NE 7.4
Ieri h: 16:50 sereno Sereno 30 16 42 1018 10 N/NO 7.4
Ieri h: 16:20 sereno Sereno 30 15 40 1018 10 N 5.5
Ieri h: 15:50 poco_nuvoloso Poco Nuvoloso 30 16 42 1018 10 N 5.5
Ieri h: 15:20 sereno Sereno 29 16 45 1019 10 N 7.4
Ieri h: 14:50 poco_nuvoloso Poco Nuvoloso 29 16 45 1019 10 N 5.5
Ieri h: 14:20 poco_nuvoloso Poco Nuvoloso 28 17 51 1019 10 N 7.4
Ieri h: 13:50 nuvoloso Nuvoloso 28 17 51 1020 10 N 5.5
Ieri h: 13:20 poco_nuvoloso Poco Nuvoloso 27 17 54 1020 10 N 9.3
Ieri h: 12:50 nuvoloso Nuvoloso 27 17 54 1020 10 N 7.4
Ieri h: 12:20 nuvoloso Nuvoloso 26 17 57 1021 10 N 7.4
Ieri h: 11:50 molto_nuvoloso Molto Nuvoloso 26 17 57 1021 10 NE 9.3
Ieri h: 11:20 molto_nuvoloso Molto Nuvoloso 25 17 61 1021 10 N/NE 9.3
Ieri h: 10:50 poco_nuvoloso Poco Nuvoloso 25 16 57 1021 10 NE 7.4
Ieri h: 10:20 sereno Sereno 25 16 57 1021 10 NE 7.4
Ieri h: 09:50 sereno Sereno 24 15 57 1020 10 N 5.5
Ieri h: 09:20 sereno Sereno 24 15 57 1020 10 N 3.7
Ieri h: 08:50 sereno Sereno 21 15 68 1020 10 N 5.5
Ieri h: 08:20 sereno Sereno 19 14 72 1020 10 S/SO 7.4
Ieri h: 07:50 sereno Sereno 17 14 82 1020 10 SO 7.4
Ieri h: 07:20 sereno Sereno 16 13 82 1020 10 SO 7.4
Ieri h: 06:50 sereno Sereno 16 13 82 1020 10 O/SO 9.3
Ieri h: 06:20 sereno Sereno 16 13 82 1019 10 SO 9.3
Ieri h: 05:50 sereno Sereno 16 13 82 1019 10 SO 9.3
Ieri h: 05:20 sereno Sereno 17 13 77 1020 10 O/SO 7.4
Ieri h: 04:50 sereno Sereno 16 13 82 1019 10 SO 9.3
Ieri h: 04:20 poco_nuvoloso Poco Nuvoloso 17 14 82 1019 10 S/SO 11.1
Ieri h: 03:50 nuvoloso Nuvoloso 17 14 82 1019 10 SO 7.4
Ieri h: 03:20 molto_nuvoloso Molto Nuvoloso 17 14 82 1019 10 SO 7.4
Ieri h: 02:50 poco_nuvoloso Poco Nuvoloso 18 13 72 1019 10 SO 7.4